Time;durP1;ratioP1;P1;durP2;ratioP2;P2;SDS_P1;SDS_P2;PMS_P1;PMS_P2;Temp;Humidity;BMP_temperature;BMP_pressure;BME280_temperature;BME280_humidity;BME280_pressure;Samples;Min_cycle;Max_cycle;Signal;HPM_P1;HPM_P2
2022/05/28 00:00:03;;;;;;;;;;;;;;;11.57;57.83;100753.69;5075612;28;19935;-53
2022/05/28 00:02:31;;;;;;;;;;;;;;;11.52;57.67;100753.78;5092896;28;19947;-52
2022/05/28 00:04:59;;;;;;;;;;;;;;;11.57;57.76;100750.09;5093076;28;20309;-53
2022/05/28 00:07:26;;;;;;;;;;;;;;;11.55;57.94;100744.81;5096626;28;19931;-52
2022/05/28 00:09:53;;;;;;;;;;;;;;;11.53;58.12;100743.47;5078100;28;19929;-54
2022/05/28 00:12:23;;;;;;;;;;;;;;;11.47;58.20;100748.34;5093120;28;19925;-52
2022/05/28 00:14:50;;;;;;;;;;;;;;;11.50;58.42;100736.53;5095128;28;19931;-52
2022/05/28 00:17:17;;;;;;;;;;;;;;;11.45;58.62;100738.63;5083421;28;19925;-53
2022/05/28 00:19:44;;;;;;;;;;;;;;;11.34;59.14;100738.88;5097341;28;19932;-52
2022/05/28 00:22:12;;;;;;;;;;;;;;;11.29;59.11;100732.56;5093743;28;19924;-55
2022/05/28 00:24:39;;;;;;;;;;;;;;;11.41;58.96;100734.81;5078675;28;19925;-53
2022/05/28 00:27:06;;;;;;;;;;;;;;;11.35;59.25;100732.13;5075946;28;19928;-54
2022/05/28 00:29:34;;;;;;;;;;;;;;;11.43;59.23;100733.38;5076096;28;19924;-52
2022/05/28 00:32:00;;;;;;;;;;;;;;;11.33;59.56;100734.41;5084175;28;19924;-52
2022/05/28 00:34:29;;;;;;;;;;;;;;;11.36;59.45;100739.38;5075016;28;19925;-52
2022/05/28 00:36:57;;;;;;;;;;;;;;;11.29;59.81;100733.38;5076905;28;19925;-52
2022/05/28 00:39:25;;;;;;;;;;;;;;;11.29;59.82;100736.19;5086531;28;19958;-52
2022/05/28 00:41:52;;;;;;;;;;;;;;;11.21;60.17;100733.31;5112953;28;19931;-54
2022/05/28 00:44:19;;;;;;;;;;;;;;;11.35;59.56;100732.13;5095830;28;19924;-51
2022/05/28 00:46:46;;;;;;;;;;;;;;;11.35;59.68;100729.34;5093557;28;19924;-54
2022/05/28 00:49:18;;;;;;;;;;;;;;;11.38;59.45;100725.94;5074278;28;19925;-52
2022/05/28 00:51:48;;;;;;;;;;;;;;;11.32;60.00;100729.16;5074565;28;19924;-51
2022/05/28 00:54:16;;;;;;;;;;;;;;;11.28;59.90;100725.34;5074270;28;20307;-51
2022/05/28 00:56:44;;;;;;;;;;;;;;;11.32;59.77;100718.00;5100636;28;19924;-52
2022/05/28 00:59:11;;;;;;;;;;;;;;;11.30;60.04;100718.31;5094784;28;20308;-52
2022/05/28 01:01:41;;;;;;;;;;;;;;;11.27;60.06;100721.72;5093286;28;19924;-51
2022/05/28 01:04:14;;;;;;;;;;;;;;;11.29;60.08;100715.84;5094556;28;19931;-52
2022/05/28 01:06:47;;;;;;;;;;;;;;;11.38;59.93;100717.59;5084805;28;19924;-52
2022/05/28 01:09:20;;;;;;;;;;;;;;;11.32;59.96;100713.25;5073792;28;19935;-51
2022/05/28 01:11:52;;;;;;;;;;;;;;;11.32;60.01;100704.88;5089057;28;20295;-51
2022/05/28 01:14:22;;;;;;;;;;;;;;;11.37;59.89;100696.38;5109584;28;19924;-53
2022/05/28 01:16:50;;;;;;;;;;;;;;;11.37;59.99;100701.97;5098705;28;19935;-54
2022/05/28 01:19:22;;;;;;;;;;;;;;;11.36;59.74;100699.53;5092603;28;19932;-52
2022/05/28 01:21:59;;;;;;;;;;;;;;;11.36;59.96;100700.34;5078229;28;20312;-52
2022/05/28 01:24:30;;;;;;;;;;;;;;;11.38;60.03;100698.06;5086565;28;19929;-53
2022/05/28 01:27:01;;;;;;;;;;;;;;;11.28;60.08;100703.88;5077098;28;19931;-53
2022/05/28 01:29:30;;;;;;;;;;;;;;;11.26;60.33;100691.38;5094252;28;19924;-52
2022/05/28 01:31:57;;;;;;;;;;;;;;;11.32;60.15;100702.09;5106477;28;19923;-53
2022/05/28 01:34:25;;;;;;;;;;;;;;;11.26;60.29;100700.56;5090237;27;19995;-52
2022/05/28 01:36:53;;;;;;;;;;;;;;;11.20;60.52;100699.03;5072506;28;19924;-54
2022/05/28 01:39:21;;;;;;;;;;;;;;;11.23;60.58;100686.41;5086934;28;19954;-54
2022/05/28 01:41:49;;;;;;;;;;;;;;;11.23;60.51;100695.59;5092604;28;19924;-52
2022/05/28 01:44:18;;;;;;;;;;;;;;;11.25;60.41;100684.97;5093890;28;19931;-53
2022/05/28 01:46:46;;;;;;;;;;;;;;;11.21;60.44;100695.09;5089122;28;19928;-51
2022/05/28 01:49:15;;;;;;;;;;;;;;;11.24;60.25;100694.47;5083264;28;19931;-51
2022/05/28 01:51:47;;;;;;;;;;;;;;;11.31;60.39;100694.84;5087887;28;20391;-51
2022/05/28 01:54:16;;;;;;;;;;;;;;;11.33;60.46;100697.34;5092264;28;19939;-51
2022/05/28 01:56:45;;;;;;;;;;;;;;;11.30;60.30;100690.44;5075946;28;19931;-51
2022/05/28 01:59:13;;;;;;;;;;;;;;;11.29;60.44;100691.56;5073443;28;19924;-51
2022/05/28 02:01:41;;;;;;;;;;;;;;;11.31;60.38;100692.06;5079346;28;19924;-51
2022/05/28 02:04:10;;;;;;;;;;;;;;;11.36;60.52;100691.97;5078453;28;19936;-52
2022/05/28 02:06:37;;;;;;;;;;;;;;;11.37;60.34;100690.00;5076067;28;19943;-52
2022/05/28 02:09:06;;;;;;;;;;;;;;;11.40;60.41;100688.53;5084439;28;19924;-52
2022/05/28 02:11:40;;;;;;;;;;;;;;;11.54;60.15;100680.94;5078059;28;20388;-52
2022/05/28 02:14:14;;;;;;;;;;;;;;;11.61;60.11;100686.09;5079435;28;19930;-52
2022/05/28 02:16:47;;;;;;;;;;;;;;;11.55;60.06;100688.19;5076283;28;19924;-52
2022/05/28 02:19:21;;;;;;;;;;;;;;;11.64;59.76;100680.72;5081896;28;19924;-52
2022/05/28 02:21:52;;;;;;;;;;;;;;;11.68;59.82;100681.72;5089408;28;19928;-52
2022/05/28 02:24:23;;;;;;;;;;;;;;;11.66;59.56;100686.78;5083061;28;19925;-54
2022/05/28 02:26:52;;;;;;;;;;;;;;;11.70;59.93;100678.63;5092045;28;21180;-52
2022/05/28 02:29:19;;;;;;;;;;;;;;;11.61;59.87;100670.16;5095813;28;20272;-54
2022/05/28 02:31:49;;;;;;;;;;;;;;;11.59;60.20;100672.47;5079747;28;19931;-51
2022/05/28 02:34:16;;;;;;;;;;;;;;;11.60;60.03;100676.09;5093376;28;19947;-51
2022/05/28 02:36:43;;;;;;;;;;;;;;;11.54;60.03;100670.59;5074633;28;20296;-51
2022/05/28 02:39:11;;;;;;;;;;;;;;;11.56;60.22;100673.09;5072973;28;19928;-55
2022/05/28 02:41:38;;;;;;;;;;;;;;;11.54;60.22;100669.78;5072790;28;19924;-52
2022/05/28 02:44:05;;;;;;;;;;;;;;;11.52;60.25;100660.91;5078894;28;19928;-52
2022/05/28 02:46:33;;;;;;;;;;;;;;;11.44;60.59;100668.06;5091990;28;19939;-51
2022/05/28 02:49:01;;;;;;;;;;;;;;;11.49;60.88;100667.97;5093268;28;19924;-52
2022/05/28 02:51:28;;;;;;;;;;;;;;;11.41;61.21;100659.53;5079698;28;19932;-52
2022/05/28 02:53:56;;;;;;;;;;;;;;;11.45;60.77;100666.13;5092366;28;19935;-52
2022/05/28 02:56:23;;;;;;;;;;;;;;;11.50;61.15;100664.00;5079692;28;19931;-53
2022/05/28 02:58:50;;;;;;;;;;;;;;;11.43;61.06;100663.63;5080633;28;19946;-52
2022/05/28 03:01:18;;;;;;;;;;;;;;;11.45;61.17;100666.13;5093623;28;19932;-51
2022/05/28 03:03:46;;;;;;;;;;;;;;;11.37;61.69;100671.28;5093169;28;19935;-53
2022/05/28 03:06:14;;;;;;;;;;;;;;;11.48;61.62;100668.25;5077929;28;19936;-54
2022/05/28 03:08:43;;;;;;;;;;;;;;;11.59;61.41;100666.91;5073257;28;19925;-52
2022/05/28 03:11:10;;;;;;;;;;;;;;;11.64;61.22;100658.38;5083836;28;20387;-52
2022/05/28 03:13:37;;;;;;;;;;;;;;;11.60;61.58;100667.72;5092582;28;20288;-51
2022/05/28 03:16:05;;;;;;;;;;;;;;;11.70;61.21;100667.47;5085504;28;19931;-52
2022/05/28 03:18:32;;;;;;;;;;;;;;;11.84;60.93;100670.16;5091331;28;19931;-53
2022/05/28 03:20:59;;;;;;;;;;;;;;;11.88;61.13;100672.03;5091331;28;19973;-52
2022/05/28 03:23:27;;;;;;;;;;;;;;;12.06;60.39;100678.56;5091197;28;19928;-51
2022/05/28 03:25:54;;;;;;;;;;;;;;;12.11;60.47;100678.41;5080379;28;19932;-51
2022/05/28 03:28:21;;;;;;;;;;;;;;;12.16;60.59;100675.50;5076836;28;19923;-52
2022/05/28 03:30:48;;;;;;;;;;;;;;;12.24;60.25;100667.47;5094391;28;19924;-52
2022/05/28 03:33:15;;;;;;;;;;;;;;;12.37;59.71;100663.78;5091528;28;19931;-52
2022/05/28 03:35:42;;;;;;;;;;;;;;;12.41;60.03;100666.72;5091835;28;20403;-51
2022/05/28 03:38:09;;;;;;;;;;;;;;;12.41;60.09;100653.59;5093097;28;20368;-52
2022/05/28 03:40:38;;;;;;;;;;;;;;;12.55;59.63;100653.47;5087572;28;20304;-51
2022/05/28 03:43:06;;;;;;;;;;;;;;;12.53;59.75;100662.19;5090540;28;19924;-53
2022/05/28 03:45:34;;;;;;;;;;;;;;;12.58;59.23;100664.84;5078343;28;19931;-52
2022/05/28 03:48:02;;;;;;;;;;;;;;;12.59;59.39;100658.09;5092969;28;20284;-52
2022/05/28 03:50:29;;;;;;;;;;;;;;;12.59;59.22;100660.06;5083039;28;19932;-51
2022/05/28 03:52:56;;;;;;;;;;;;;;;12.56;59.83;100661.53;5080918;28;19935;-52
2022/05/28 03:55:23;;;;;;;;;;;;;;;12.53;59.81;100666.94;5084121;28;19925;-52
2022/05/28 03:57:52;;;;;;;;;;;;;;;12.53;60.07;100667.75;5071875;28;20380;-53
2022/05/28 04:00:19;;;;;;;;;;;;;;;12.50;60.30;100676.00;5077153;28;19924;-52
2022/05/28 04:02:46;;;;;;;;;;;;;;;12.47;60.70;100668.25;5093218;28;19928;-52
2022/05/28 04:05:14;;;;;;;;;;;;;;;12.42;61.26;100671.19;5094710;28;19924;-52
2022/05/28 04:07:41;;;;;;;;;;;;;;;12.44;61.00;100669.72;5093394;28;20391;-54
2022/05/28 04:10:09;;;;;;;;;;;;;;;12.50;60.94;100671.22;5093495;28;20292;-52
2022/05/28 04:12:36;;;;;;;;;;;;;;;12.63;60.62;100671.44;5094485;28;19925;-52
2022/05/28 04:15:04;;;;;;;;;;;;;;;12.69;60.30;100675.72;5100345;28;19932;-51
2022/05/28 04:17:31;;;;;;;;;;;;;;;12.74;60.55;100672.78;5074903;28;20276;-52
2022/05/28 04:19:58;;;;;;;;;;;;;;;12.87;60.30;100671.84;5074558;28;19924;-52
2022/05/28 04:22:26;;;;;;;;;;;;;;;12.91;60.01;100672.81;5079517;28;19925;-52
2022/05/28 04:24:53;;;;;;;;;;;;;;;12.92;60.28;100676.47;5077734;28;19928;-51
2022/05/28 04:27:20;;;;;;;;;;;;;;;12.90;60.09;100676.78;5095095;28;19947;-52
2022/05/28 04:29:47;;;;;;;;;;;;;;;12.99;60.10;100680.41;5090904;28;19935;-52
2022/05/28 04:32:15;;;;;;;;;;;;;;;13.03;60.41;100690.94;5077287;28;19925;-52
2022/05/28 04:34:42;;;;;;;;;;;;;;;13.08;59.90;100685.19;5078394;28;19925;-55
2022/05/28 04:37:09;;;;;;;;;;;;;;;13.09;60.49;100684.06;5093786;28;19924;-51
2022/05/28 04:39:36;;;;;;;;;;;;;;;13.18;60.22;100690.47;5093432;28;20308;-52
2022/05/28 04:42:04;;;;;;;;;;;;;;;13.21;60.04;100692.63;5094453;28;19924;-51
2022/05/28 04:44:31;;;;;;;;;;;;;;;13.26;59.96;100700.84;5092290;28;19923;-52
2022/05/28 04:46:58;;;;;;;;;;;;;;;13.35;59.84;100701.72;5094569;28;19925;-53
2022/05/28 04:49:26;;;;;;;;;;;;;;;13.44;59.73;100701.75;5093534;28;19931;-52
2022/05/28 04:51:56;;;;;;;;;;;;;;;13.53;59.57;100702.56;5090855;28;19924;-52
2022/05/28 04:54:23;;;;;;;;;;;;;;;13.57;59.83;100700.75;5093447;28;19947;-52
2022/05/28 04:56:50;;;;;;;;;;;;;;;13.66;59.67;100709.13;5074739;28;20361;-51
2022/05/28 04:59:18;;;;;;;;;;;;;;;13.70;59.18;100698.94;5086761;28;19928;-52
2022/05/28 05:01:45;;;;;;;;;;;;;;;13.78;59.30;100706.50;5087604;28;20288;-53
2022/05/28 05:04:12;;;;;;;;;;;;;;;13.86;58.76;100713.25;5094968;28;19931;-55
2022/05/28 05:06:40;;;;;;;;;;;;;;;13.94;59.21;100715.22;5092995;28;19924;-52
2022/05/28 05:09:07;;;;;;;;;;;;;;;14.06;58.64;100708.94;5090227;28;19928;-51
2022/05/28 05:11:34;;;;;;;;;;;;;;;14.12;58.43;100716.00;5081998;28;19931;-52
2022/05/28 05:14:01;;;;;;;;;;;;;;;14.20;58.64;100715.19;5094718;28;20298;-52
2022/05/28 05:16:28;;;;;;;;;;;;;;;14.24;58.51;100714.50;5093359;28;19924;-52
2022/05/28 05:18:58;;;;;;;;;;;;;;;14.38;58.03;100715.13;5094192;28;20403;-52
2022/05/28 05:21:28;;;;;;;;;;;;;;;14.36;58.28;100717.44;5090434;28;19924;-52
2022/05/28 05:23:56;;;;;;;;;;;;;;;14.45;58.07;100711.78;5095651;28;19925;-51
2022/05/28 05:26:23;;;;;;;;;;;;;;;14.70;57.86;100724.09;5073983;28;19931;-52
2022/05/28 05:28:50;;;;;;;;;;;;;;;14.76;56.50;100705.94;5091298;28;19924;-52
2022/05/28 05:31:18;;;;;;;;;;;;;;;14.79;56.65;100720.13;5080981;28;19936;-52
2022/05/28 05:33:45;;;;;;;;;;;;;;;14.78;56.22;100720.44;5073801;28;19931;-54
2022/05/28 05:36:12;;;;;;;;;;;;;;;14.71;56.44;100729.38;5093322;28;20398;-53
2022/05/28 05:38:40;;;;;;;;;;;;;;;14.68;56.84;100729.22;5106638;28;19931;-53
2022/05/28 05:41:08;;;;;;;;;;;;;;;14.83;56.79;100728.69;5075553;28;19932;-52
2022/05/28 05:43:35;;;;;;;;;;;;;;;14.90;56.29;100722.53;5083088;28;20399;-52
2022/05/28 05:46:02;;;;;;;;;;;;;;;14.95;56.00;100731.59;5086825;28;19924;-52
2022/05/28 05:48:30;;;;;;;;;;;;;;;15.06;55.24;100732.03;5093972;28;20249;-51
2022/05/28 05:50:57;;;;;;;;;;;;;;;15.04;54.00;100727.94;5092175;28;19923;-52
2022/05/28 05:53:24;;;;;;;;;;;;;;;14.97;53.75;100737.69;5088350;28;19924;-52
2022/05/28 05:55:50;;;;;;;;;;;;;;;15.03;53.54;100738.31;5079356;28;20383;-55
2022/05/28 05:58:19;;;;;;;;;;;;;;;15.11;53.72;100742.22;5092374;28;20379;-52
2022/05/28 06:00:46;;;;;;;;;;;;;;;15.11;53.23;100739.44;5087310;28;19923;-54
2022/05/28 06:03:16;;;;;;;;;;;;;;;15.26;52.99;100727.59;5090577;28;19924;-52
2022/05/28 06:05:46;;;;;;;;;;;;;;;15.40;53.10;100735.78;5080957;28;19928;-52
2022/05/28 06:08:15;;;;;;;;;;;;;;;15.45;51.73;100717.91;5107696;28;19924;-53
2022/05/28 06:10:42;;;;;;;;;;;;;;;15.49;50.44;100727.28;5112971;28;19924;-52
2022/05/28 06:13:09;;;;;;;;;;;;;;;15.41;50.42;100727.03;5113984;28;19924;-55
2022/05/28 06:15:38;;;;;;;;;;;;;;;15.42;50.27;100734.28;5109133;28;20410;-53
2022/05/28 06:18:05;;;;;;;;;;;;;;;15.47;50.55;100730.44;5082028;28;19924;-53
2022/05/28 06:20:32;;;;;;;;;;;;;;;15.53;50.46;100734.69;5093197;28;19924;-55
2022/05/28 06:22:59;;;;;;;;;;;;;;;15.72;49.48;100731.44;5107109;28;19931;-52
2022/05/28 06:25:26;;;;;;;;;;;;;;;15.90;49.23;100736.91;5113945;28;19924;-53
2022/05/28 06:27:53;;;;;;;;;;;;;;;15.79;48.41;100734.53;5111560;28;19931;-54
2022/05/28 06:30:20;;;;;;;;;;;;;;;15.81;48.84;100734.16;5093436;28;19924;-52
2022/05/28 06:32:48;;;;;;;;;;;;;;;15.76;48.96;100726.78;5096439;28;20414;-54
2022/05/28 06:35:15;;;;;;;;;;;;;;;15.81;48.66;100736.97;5109755;28;19931;-52
2022/05/28 06:37:42;;;;;;;;;;;;;;;15.89;48.78;100738.06;5099115;28;19924;-52
2022/05/28 06:40:10;;;;;;;;;;;;;;;15.80;47.97;100746.56;5109798;28;19935;-55
2022/05/28 06:42:37;;;;;;;;;;;;;;;15.95;46.73;100745.13;5109652;28;19947;-52
2022/05/28 06:45:05;;;;;;;;;;;;;;;15.91;46.37;100747.78;5104253;28;19924;-52
2022/05/28 06:47:32;;;;;;;;;;;;;;;15.95;45.97;100745.94;5091606;28;20363;-54
2022/05/28 06:52:45;;;;;;;;;;;;;;;16.21;46.10;100748.50;5116348;28;19923;-52
2022/05/28 06:55:12;;;;;;;;;;;;;;;16.47;46.36;100747.41;5113456;28;20286;-52
2022/05/28 06:57:42;;;;;;;;;;;;;;;16.69;46.08;100746.16;5113228;28;19924;-52
2022/05/28 07:00:09;;;;;;;;;;;;;;;16.72;44.88;100755.91;5106246;28;19924;-53
2022/05/28 07:02:36;;;;;;;;;;;;;;;16.94;44.10;100747.03;5080481;28;19925;-52
2022/05/28 07:05:05;;;;;;;;;;;;;;;17.01;42.88;100752.09;5088974;28;19946;-51
2022/05/28 07:07:32;;;;;;;;;;;;;;;16.78;43.75;100751.69;5094498;28;19931;-52
2022/05/28 07:09:59;;;;;;;;;;;;;;;17.04;43.24;100746.56;5087912;28;19928;-54
2022/05/28 07:12:26;;;;;;;;;;;;;;;17.17;42.90;100752.19;5083168;28;19947;-53
2022/05/28 07:14:53;;;;;;;;;;;;;;;17.34;42.47;100751.94;5091324;28;19931;-51
2022/05/28 07:17:20;;;;;;;;;;;;;;;17.52;41.51;100748.88;5092761;28;19931;-51
2022/05/28 07:19:47;;;;;;;;;;;;;;;17.68;41.02;100746.13;5092094;28;19924;-51
2022/05/28 07:22:16;;;;;;;;;;;;;;;17.78;40.90;100740.00;5091941;28;19932;-53
2022/05/28 07:24:42;;;;;;;;;;;;;;;17.72;40.33;100742.25;5103733;28;19924;-53
2022/05/28 07:27:11;;;;;;;;;;;;;;;17.44;40.49;100748.66;5092410;28;20287;-54
2022/05/28 07:29:39;;;;;;;;;;;;;;;17.54;41.33;100746.53;5091031;28;19932;-51
2022/05/28 07:32:07;;;;;;;;;;;;;;;17.74;41.36;100755.97;5105790;28;20351;-51
2022/05/28 07:34:35;;;;;;;;;;;;;;;17.96;41.21;100749.03;5096673;28;19929;-52
2022/05/28 07:37:02;;;;;;;;;;;;;;;18.17;40.41;100738.34;5082510;28;19928;-51
2022/05/28 07:39:30;;;;;;;;;;;;;;;18.46;39.96;100744.81;5115195;28;19931;-52
2022/05/28 07:41:57;;;;;;;;;;;;;;;18.73;38.51;100739.44;5116347;28;19924;-51
2022/05/28 07:44:24;;;;;;;;;;;;;;;18.88;37.90;100735.00;5117167;28;20291;-51
2022/05/28 07:46:51;;;;;;;;;;;;;;;19.80;36.45;100739.22;5114699;28;20269;-51
2022/05/28 07:49:18;;;;;;;;;;;;;;;20.12;36.18;100741.91;5089417;28;19939;-51
2022/05/28 07:51:45;;;;;;;;;;;;;;;19.72;36.84;100745.06;5086195;28;20288;-52
2022/05/28 07:54:13;;;;;;;;;;;;;;;19.45;36.68;100745.69;5078228;28;19931;-52
2022/05/28 07:56:41;;;;;;;;;;;;;;;19.26;36.72;100748.47;5087464;28;19932;-51
2022/05/28 07:59:08;;;;;;;;;;;;;;;18.90;37.11;100744.78;5084887;28;19925;-53
2022/05/28 08:01:36;;;;;;;;;;;;;;;19.13;37.23;100747.75;5083994;28;19924;-53
2022/05/28 08:04:03;;;;;;;;;;;;;;;19.00;37.40;100740.56;5087052;28;19925;-51
2022/05/28 08:06:31;;;;;;;;;;;;;;;20.49;35.51;100738.56;5095691;28;19928;-52
2022/05/28 08:08:58;;;;;;;;;;;;;;;21.89;32.97;100730.28;5092049;28;19924;-53
2022/05/28 08:11:25;;;;;;;;;;;;;;;23.34;31.42;100727.69;5095355;28;19924;-51
2022/05/28 08:13:54;;;;;;;;;;;;;;;24.45;28.43;100721.72;5095355;28;20303;-53
2022/05/28 08:16:22;;;;;;;;;;;;;;;25.77;25.81;100726.56;5101695;28;19930;-52
2022/05/28 08:18:49;;;;;;;;;;;;;;;26.99;25.23;100723.03;5116289;28;20426;-52
2022/05/28 08:24:12;;;;;;;;;;;;;;;27.67;23.52;100710.09;5025409;28;19941;-52
2022/05/28 08:26:39;;;;;;;;;;;;;;;28.30;21.28;100716.25;5069111;28;19924;-52
2022/05/28 08:29:08;;;;;;;;;;;;;;;29.24;20.86;100718.50;5093498;28;19931;-53
2022/05/28 08:31:35;;;;;;;;;;;;;;;29.35;21.12;100721.16;5092913;28;19924;-53
2022/05/28 08:34:01;;;;;;;;;;;;;;;29.89;20.56;100717.28;5092464;28;19935;-55
2022/05/28 08:36:29;;;;;;;;;;;;;;;30.98;19.01;100708.66;5082180;28;19924;-55
2022/05/28 08:38:56;;;;;;;;;;;;;;;31.21;19.47;100706.81;5088572;28;19931;-55
2022/05/28 08:41:25;;;;;;;;;;;;;;;30.73;19.79;100712.13;5075387;28;19947;-54
2022/05/28 08:43:57;;;;;;;;;;;;;;;31.17;18.39;100709.78;5081349;28;19924;-52
2022/05/28 08:46:28;;;;;;;;;;;;;;;30.73;18.31;100715.78;5095623;28;19931;-55
2022/05/28 08:48:59;;;;;;;;;;;;;;;31.02;18.55;100712.25;5097107;28;19931;-52
2022/05/28 08:51:31;;;;;;;;;;;;;;;31.61;17.53;100707.38;5085502;28;19951;-55
2022/05/28 08:54:00;;;;;;;;;;;;;;;32.51;16.78;100704.72;5086810;28;19924;-54
2022/05/28 08:56:27;;;;;;;;;;;;;;;33.00;16.52;100698.56;5088508;28;20392;-52
2022/05/28 08:59:01;;;;;;;;;;;;;;;33.12;16.24;100700.63;5081501;28;19951;-50
2022/05/28 09:01:33;;;;;;;;;;;;;;;31.96;16.73;100708.41;5099282;28;19924;-52
2022/05/28 09:04:07;;;;;;;;;;;;;;;30.87;17.38;100700.28;5115432;28;20406;-52
2022/05/28 09:06:38;;;;;;;;;;;;;;;29.53;19.72;100717.97;5114842;28;19923;-53
2022/05/28 09:09:10;;;;;;;;;;;;;;;28.07;21.42;100713.31;5114916;28;19946;-51
2022/05/28 09:11:41;;;;;;;;;;;;;;;28.86;20.64;100712.19;5114736;28;20406;-54
2022/05/28 09:14:14;;;;;;;;;;;;;;;30.07;20.16;100709.09;5115545;28;19923;-52
2022/05/28 09:16:45;;;;;;;;;;;;;;;30.86;18.48;100706.44;5112265;28;19928;-52
2022/05/28 09:19:17;;;;;;;;;;;;;;;29.93;19.29;100701.59;5115280;28;19928;-52
2022/05/28 09:21:44;;;;;;;;;;;;;;;31.52;19.22;100705.16;5109334;28;19924;-55
2022/05/28 09:24:14;;;;;;;;;;;;;;;31.10;18.08;100704.22;5096544;28;19927;-51
2022/05/28 09:26:45;;;;;;;;;;;;;;;30.97;18.04;100704.13;5103134;28;19939;-55
2022/05/28 09:29:19;;;;;;;;;;;;;;;29.62;19.55;100705.91;5095968;28;19928;-51
2022/05/28 09:31:53;;;;;;;;;;;;;;;28.87;19.66;100710.91;5108072;28;19923;-51
2022/05/28 09:34:27;;;;;;;;;;;;;;;27.67;20.97;100710.09;5098447;27;19924;-54
2022/05/28 09:36:58;;;;;;;;;;;;;;;26.40;21.98;100717.31;5093999;28;19946;-54
2022/05/28 09:39:36;;;;;;;;;;;;;;;25.52;23.86;100718.88;5098535;28;19923;-52
2022/05/28 09:42:09;;;;;;;;;;;;;;;24.93;24.88;100718.53;5114565;28;19923;-52
2022/05/28 09:44:41;;;;;;;;;;;;;;;24.68;26.16;100724.22;5089783;28;19924;-52
2022/05/28 09:47:10;;;;;;;;;;;;;;;26.79;24.16;100710.53;5076039;28;20273;-52
2022/05/28 09:49:46;;;;;;;;;;;;;;;28.70;21.69;100704.25;5093949;28;20380;-52
2022/05/28 09:52:13;;;;;;;;;;;;;;;30.34;20.59;100697.44;5094213;28;20403;-52
2022/05/28 09:54:39;;;;;;;;;;;;;;;31.26;18.69;100694.75;5098532;28;19924;-52
2022/05/28 09:57:10;;;;;;;;;;;;;;;32.21;17.77;100683.78;5093585;28;19924;-55
2022/05/28 09:59:49;;;;;;;;;;;;;;;33.21;16.08;100685.47;5112968;28;19924;-53
2022/05/28 10:02:20;;;;;;;;;;;;;;;33.23;16.38;100680.03;5101005;28;20414;-55
2022/05/28 10:04:51;;;;;;;;;;;;;;;32.82;16.14;100678.16;5093818;28;20403;-53
2022/05/28 10:07:28;;;;;;;;;;;;;;;32.08;16.49;100674.34;5093764;28;19924;-52
2022/05/28 10:09:55;;;;;;;;;;;;;;;30.65;17.70;100684.78;5093697;28;19931;-53
2022/05/28 10:12:25;;;;;;;;;;;;;;;28.84;18.72;100683.13;5093684;28;19924;-52
2022/05/28 10:14:59;;;;;;;;;;;;;;;27.59;19.79;100686.47;5093543;28;19928;-55
2022/05/28 10:17:29;;;;;;;;;;;;;;;27.22;20.95;100685.25;5105647;28;19924;-52
2022/05/28 10:19:57;;;;;;;;;;;;;;;26.73;22.07;100688.13;5097713;28;19939;-52
2022/05/28 10:22:26;;;;;;;;;;;;;;;27.54;22.26;100679.19;5088954;28;19944;-54
2022/05/28 10:24:55;;;;;;;;;;;;;;;29.30;21.07;100678.66;5092249;28;19927;-52
2022/05/28 10:27:28;;;;;;;;;;;;;;;29.87;20.38;100673.84;5113923;28;19924;-52
2022/05/28 10:29:57;;;;;;;;;;;;;;;31.48;19.59;100672.78;5113508;28;20273;-54
2022/05/28 10:32:30;;;;;;;;;;;;;;;31.61;18.47;100666.25;5113704;28;19923;-52
2022/05/28 10:35:02;;;;;;;;;;;;;;;30.69;18.71;100671.94;5113511;28;19923;-52
2022/05/28 10:37:29;;;;;;;;;;;;;;;29.85;18.95;100674.25;5113799;28;19924;-55
2022/05/28 10:40:04;;;;;;;;;;;;;;;29.85;18.27;100679.22;5109580;28;20332;-55
2022/05/28 10:42:31;;;;;;;;;;;;;;;31.70;17.76;100667.19;5113099;28;20291;-54
2022/05/28 10:45:00;;;;;;;;;;;;;;;31.72;17.57;100661.78;5112892;28;19924;-52
2022/05/28 10:47:41;;;;;;;;;;;;;;;30.40;18.75;100668.16;5113336;28;19931;-52
2022/05/28 10:50:13;;;;;;;;;;;;;;;29.60;19.26;100665.34;5113281;28;19924;-52
2022/05/28 10:52:48;;;;;;;;;;;;;;;28.90;19.45;100669.91;5112731;28;20364;-54
2022/05/28 10:55:20;;;;;;;;;;;;;;;27.98;21.02;100664.38;5105805;28;19924;-52
2022/05/28 10:58:11;;;;;;;;;;;;;;;26.82;22.50;100678.25;5113214;28;19931;-52
2022/05/28 11:00:44;;;;;;;;;;;;;;;25.76;23.43;100681.31;5113215;28;19924;-53
2022/05/28 11:03:33;;;;;;;;;;;;;;;25.19;24.75;100679.41;5113221;28;19924;-53
2022/05/28 11:06:21;;;;;;;;;;;;;;;25.36;26.02;100678.59;5112757;28;20371;-55
2022/05/28 11:08:53;;;;;;;;;;;;;;;27.20;24.23;100672.59;5104732;28;19924;-55
2022/05/28 11:11:26;;;;;;;;;;;;;;;28.85;22.85;100665.50;5117131;28;19931;-52
2022/05/28 11:14:03;;;;;;;;;;;;;;;30.42;20.90;100662.75;5116650;28;19927;-55
2022/05/28 11:16:47;;;;;;;;;;;;;;;31.79;19.63;100660.75;5117302;28;19923;-55
2022/05/28 11:19:29;;;;;;;;;;;;;;;32.92;17.88;100651.00;5117016;28;19928;-55
2022/05/28 11:22:19;;;;;;;;;;;;;;;32.14;18.05;100646.56;5114040;28;19923;-53
2022/05/28 11:24:58;;;;;;;;;;;;;;;30.97;18.01;100655.22;5103475;28;20303;-53
2022/05/28 11:27:35;;;;;;;;;;;;;;;30.42;18.62;100659.88;5096617;28;20368;-55
2022/05/28 11:30:05;;;;;;;;;;;;;;;30.25;18.60;100656.16;5096470;28;19924;-55
2022/05/28 11:32:34;;;;;;;;;;;;;;;29.24;20.61;100657.44;5096791;28;19924;-54
2022/05/28 11:35:08;;;;;;;;;;;;;;;28.82;20.53;100654.09;5096436;28;19931;-55
2022/05/28 11:37:40;;;;;;;;;;;;;;;28.23;22.05;100661.16;5097517;28;20011;-53
2022/05/28 11:40:11;;;;;;;;;;;;;;;29.37;21.14;100657.59;5115391;28;19924;-55
2022/05/28 11:42:43;;;;;;;;;;;;;;;30.82;21.05;100637.50;5116587;28;19930;-52
2022/05/28 11:45:14;;;;;;;;;;;;;;;32.09;19.01;100647.94;5116907;28;19931;-53
2022/05/28 11:47:47;;;;;;;;;;;;;;;32.76;18.35;100638.38;5116932;28;19931;-53
2022/05/28 11:53:10;;;;;;;;;;;;;;;32.82;18.39;100635.69;5113313;28;19927;-54
2022/05/28 11:55:39;;;;;;;;;;;;;;;31.93;17.60;100625.75;5116826;27;19931;-52
2022/05/28 11:58:10;;;;;;;;;;;;;;;31.33;17.26;100634.09;5101213;28;19924;-55
2022/05/28 12:00:39;;;;;;;;;;;;;;;30.41;18.59;100641.00;5077517;28;19932;-52
2022/05/28 12:03:16;;;;;;;;;;;;;;;30.43;19.01;100627.84;5096532;28;20380;-54
2022/05/28 12:05:47;;;;;;;;;;;;;;;29.49;20.03;100631.94;5096203;28;19928;-53
2022/05/28 12:08:22;;;;;;;;;;;;;;;28.87;19.98;100628.59;5096329;28;19931;-54
2022/05/28 12:10:51;;;;;;;;;;;;;;;27.97;21.28;100626.34;5095365;28;19943;-52
2022/05/28 12:13:26;;;;;;;;;;;;;;;27.29;22.39;100619.38;5097264;28;19939;-54
2022/05/28 12:16:02;;;;;;;;;;;;;;;27.64;22.69;100616.53;5113672;28;19935;-53
2022/05/28 12:18:29;;;;;;;;;;;;;;;27.87;21.53;100613.78;5084149;28;19924;-51
2022/05/28 12:20:58;;;;;;;;;;;;;;;29.02;21.16;100617.66;5094410;28;19931;-54
2022/05/28 12:23:32;;;;;;;;;;;;;;;29.79;20.45;100597.72;5086294;28;19924;-54
2022/05/28 12:26:01;;;;;;;;;;;;;;;29.17;20.74;100600.19;5096359;28;19936;-51
2022/05/28 12:28:31;;;;;;;;;;;;;;;28.13;21.30;100591.31;5095748;28;20405;-51
2022/05/28 12:31:02;;;;;;;;;;;;;;;28.67;19.97;100587.59;5094786;28;19925;-53
2022/05/28 12:33:30;;;;;;;;;;;;;;;29.23;20.29;100586.97;5115937;28;19931;-51
2022/05/28 12:36:02;;;;;;;;;;;;;;;29.67;19.81;100576.19;5094737;28;19924;-53
2022/05/28 12:38:40;;;;;;;;;;;;;;;30.27;19.69;100576.84;5078336;28;19925;-51
2022/05/28 12:41:15;;;;;;;;;;;;;;;30.46;18.92;100580.94;5103244;28;19951;-52
2022/05/28 12:43:44;;;;;;;;;;;;;;;30.09;18.87;100567.84;5093261;28;20261;-55
2022/05/28 12:46:13;;;;;;;;;;;;;;;29.06;19.82;100578.25;5089583;28;19931;-52
2022/05/28 12:48:40;;;;;;;;;;;;;;;28.14;21.20;100576.56;5084127;28;19943;-53
2022/05/28 12:51:21;;;;;;;;;;;;;;;28.20;21.65;100574.03;5092832;28;20273;-52
2022/05/28 12:53:52;;;;;;;;;;;;;;;29.05;20.02;100576.63;5079147;28;19928;-55